createdAt,value
2023-06-17T00:00:26.294Z,15.63
2023-06-17T00:02:53.228Z,16.58
2023-06-17T00:05:20.052Z,17.05
2023-06-17T00:07:46.828Z,16.80
2023-06-17T00:10:13.704Z,16.42
2023-06-17T00:12:40.654Z,16.23
2023-06-17T00:15:08.835Z,16.30
2023-06-17T00:17:35.626Z,17.00
2023-06-17T00:20:09.148Z,16.45
2023-06-17T00:22:36.569Z,16.73
2023-06-17T00:25:04.138Z,16.17
2023-06-17T00:27:30.968Z,15.60
2023-06-17T00:30:00.888Z,15.90
2023-06-17T00:32:28.531Z,15.82
2023-06-17T00:34:55.828Z,15.30
2023-06-17T00:37:22.799Z,15.70
2023-06-17T00:39:49.759Z,16.83
2023-06-17T00:42:17.088Z,16.35
2023-06-17T00:44:44.204Z,16.58
2023-06-17T00:47:11.643Z,16.95
2023-06-17T00:49:39.325Z,16.07
2023-06-17T00:52:20.115Z,15.70
2023-06-17T00:54:55.677Z,16.70
2023-06-17T00:57:22.534Z,16.67
2023-06-17T00:59:49.526Z,17.70
2023-06-17T01:02:16.678Z,17.07
2023-06-17T01:04:43.663Z,16.60
2023-06-17T01:07:44.308Z,15.98
2023-06-17T01:10:34.473Z,16.52
2023-06-17T01:13:01.939Z,17.50
2023-06-17T01:15:28.807Z,16.70
2023-06-17T01:17:56.386Z,17.60
2023-06-17T01:20:24.123Z,18.02
2023-06-17T01:22:53.480Z,17.17
2023-06-17T01:25:30.798Z,17.73
2023-06-17T01:28:01.874Z,17.17
2023-06-17T01:30:32.111Z,16.33
2023-06-17T01:32:59.446Z,16.55
2023-06-17T01:35:29.412Z,16.85
2023-06-17T01:38:11.944Z,17.95
2023-06-17T01:40:39.447Z,17.73
2023-06-17T01:43:06.284Z,17.27
2023-06-17T01:45:33.495Z,18.48
2023-06-17T01:48:00.426Z,17.23
2023-06-17T01:50:27.286Z,18.52
2023-06-17T01:52:54.161Z,18.77
2023-06-17T01:55:21.021Z,18.90
2023-06-17T01:57:47.882Z,19.63
2023-06-17T02:00:15.078Z,19.17
2023-06-17T02:02:41.940Z,19.85
2023-06-17T02:05:10.040Z,19.53
2023-06-17T02:07:36.878Z,19.92
2023-06-17T02:10:05.111Z,19.08
2023-06-17T02:12:32.032Z,20.35
2023-06-17T02:14:59.120Z,20.77
2023-06-17T02:17:28.556Z,19.90
2023-06-17T02:19:55.996Z,19.13
2023-06-17T02:22:22.957Z,19.88
2023-06-17T02:24:49.864Z,20.20
2023-06-17T02:27:17.980Z,20.40
2023-06-17T02:29:46.000Z,20.50
2023-06-17T02:32:13.350Z,20.77
2023-06-17T02:34:43.523Z,20.20
2023-06-17T02:37:10.951Z,19.98
2023-06-17T02:39:37.792Z,20.48
2023-06-17T02:42:05.232Z,19.57
2023-06-17T02:44:32.067Z,20.38
2023-06-17T02:46:59.219Z,20.10
2023-06-17T02:49:26.187Z,20.75
2023-06-17T02:51:53.082Z,19.52
2023-06-17T02:54:20.125Z,19.20
2023-06-17T02:56:47.010Z,19.65
2023-06-17T02:59:15.526Z,19.85
2023-06-17T03:01:43.232Z,20.80
2023-06-17T03:04:13.312Z,20.83
2023-06-17T03:06:42.322Z,19.90
2023-06-17T03:09:09.743Z,20.17
2023-06-17T03:11:40.945Z,19.83
2023-06-17T03:14:08.915Z,20.83
2023-06-17T03:16:35.964Z,20.77
2023-06-17T03:19:03.326Z,20.10
2023-06-17T03:21:32.046Z,20.55
2023-06-17T03:23:59.661Z,21.65
2023-06-17T03:26:26.686Z,20.23
2023-06-17T03:28:54.760Z,21.48
2023-06-17T03:31:22.010Z,22.23
2023-06-17T03:33:52.800Z,21.88
2023-06-17T03:36:20.789Z,22.08
2023-06-17T03:38:47.612Z,21.58
2023-06-17T03:41:14.389Z,20.90
2023-06-17T03:43:41.682Z,20.97
2023-06-17T03:46:08.504Z,21.55
2023-06-17T03:48:35.534Z,20.38
2023-06-17T03:51:03.331Z,21.08
2023-06-17T03:53:30.576Z,20.88
2023-06-17T03:55:57.402Z,20.53
2023-06-17T03:58:24.185Z,20.98
2023-06-17T04:00:51.304Z,20.77
2023-06-17T04:03:19.804Z,19.42
2023-06-17T04:05:47.051Z,19.92
2023-06-17T04:08:13.836Z,19.93
2023-06-17T04:10:41.163Z,20.15
2023-06-17T04:13:08.367Z,20.23
2023-06-17T04:15:35.153Z,19.58
2023-06-17T04:18:03.730Z,19.25
2023-06-17T04:20:30.547Z,18.77
2023-06-17T04:22:57.340Z,19.27
2023-06-17T04:25:24.186Z,19.48
2023-06-17T04:27:54.633Z,19.25
2023-06-17T04:30:21.796Z,19.38
2023-06-17T04:32:48.978Z,18.90
2023-06-17T04:35:19.132Z,18.60
2023-06-17T04:37:55.278Z,18.65
2023-06-17T04:40:26.265Z,20.33
2023-06-17T04:42:53.561Z,21.00
2023-06-17T04:45:20.980Z,21.77
2023-06-17T04:47:48.465Z,22.05
2023-06-17T04:50:18.520Z,22.45
2023-06-17T04:52:48.802Z,21.92
2023-06-17T04:55:15.741Z,21.38
2023-06-17T04:57:43.517Z,20.90
2023-06-17T05:00:13.972Z,20.75
2023-06-17T05:02:41.234Z,19.85
2023-06-17T05:05:08.716Z,20.17
2023-06-17T05:07:35.772Z,19.85
2023-06-17T05:10:02.814Z,19.70
2023-06-17T05:12:29.632Z,19.90
2023-06-17T05:14:56.398Z,19.50
2023-06-17T05:17:23.216Z,18.17
2023-06-17T05:19:50.931Z,18.13
2023-06-17T05:22:17.949Z,16.83
2023-06-17T05:24:44.828Z,16.98
2023-06-17T05:27:11.711Z,16.23
2023-06-17T05:29:40.157Z,15.98
2023-06-17T05:32:07.744Z,16.08
2023-06-17T05:34:34.782Z,14.40
2023-06-17T05:37:01.639Z,15.23
2023-06-17T05:39:28.499Z,14.15
2023-06-17T05:41:55.320Z,13.50
2023-06-17T05:44:22.277Z,12.88
2023-06-17T05:46:49.081Z,13.17
2023-06-17T05:49:16.943Z,14.75
2023-06-17T05:51:43.975Z,13.95
2023-06-17T05:54:10.744Z,13.25
2023-06-17T05:56:37.529Z,12.57
2023-06-17T05:59:04.330Z,12.63
2023-06-17T06:01:31.177Z,12.52
2023-06-17T06:03:58.113Z,12.48
2023-06-17T06:06:24.980Z,12.43
2023-06-17T06:08:51.803Z,12.57
2023-06-17T06:11:18.598Z,11.87
2023-06-17T06:13:45.398Z,13.00
2023-06-17T06:16:12.223Z,11.98
2023-06-17T06:18:39.049Z,12.25
2023-06-17T06:21:06.847Z,12.07
2023-06-17T06:23:34.607Z,12.07
2023-06-17T06:26:01.472Z,11.48
2023-06-17T06:28:28.396Z,12.00
2023-06-17T06:30:55.289Z,11.23
2023-06-17T06:33:23.588Z,10.45
2023-06-17T06:35:50.431Z,9.63
2023-06-17T06:38:17.284Z,10.90
2023-06-17T06:40:44.128Z,10.40
2023-06-17T06:43:10.946Z,10.32
2023-06-17T06:45:37.802Z,10.38
2023-06-17T06:48:05.064Z,9.87
2023-06-17T06:50:31.961Z,9.93
2023-06-17T06:52:58.788Z,9.52
2023-06-17T06:55:25.710Z,8.98
2023-06-17T06:57:52.503Z,9.63
2023-06-17T07:00:19.947Z,9.33
2023-06-17T07:02:47.064Z,8.88
2023-06-17T07:05:14.025Z,9.25
2023-06-17T07:07:41.598Z,8.63
2023-06-17T07:10:08.644Z,8.18
2023-06-17T07:12:35.407Z,9.00
2023-06-17T07:15:02.310Z,8.15
2023-06-17T07:17:29.362Z,8.55
2023-06-17T07:19:56.407Z,8.57
2023-06-17T07:22:23.190Z,8.18
2023-06-17T07:24:49.938Z,9.05
2023-06-17T07:27:17.688Z,9.45
2023-06-17T07:29:44.499Z,7.70
2023-06-17T07:32:11.562Z,8.27
2023-06-17T07:34:38.329Z,8.52
2023-06-17T07:37:05.386Z,8.77
2023-06-17T07:39:32.139Z,7.90
2023-06-17T07:41:58.935Z,8.13
2023-06-17T07:44:25.801Z,8.63
2023-06-17T07:46:52.692Z,8.90
2023-06-17T07:49:19.524Z,9.10
2023-06-17T07:51:46.350Z,9.95
2023-06-17T07:54:13.123Z,10.48
2023-06-17T07:56:39.876Z,10.65
2023-06-17T07:59:06.670Z,9.70
2023-06-17T08:01:35.305Z,9.40
2023-06-17T08:04:02.133Z,9.18
2023-06-17T08:06:30.254Z,9.60
2023-06-17T08:08:57.038Z,9.30
2023-06-17T08:11:23.891Z,9.20
2023-06-17T08:13:50.666Z,8.80
2023-06-17T08:16:17.462Z,9.30
2023-06-17T08:18:44.426Z,9.02
2023-06-17T08:21:11.294Z,9.82
2023-06-17T08:23:38.211Z,9.25
2023-06-17T08:26:05.987Z,9.30
2023-06-17T08:28:32.931Z,9.30
2023-06-17T08:30:59.743Z,8.65
2023-06-17T08:33:26.607Z,9.38
2023-06-17T08:35:54.126Z,9.48
2023-06-17T08:38:21.224Z,9.00
2023-06-17T08:40:48.083Z,9.48
2023-06-17T08:43:18.911Z,9.18
2023-06-17T08:45:48.675Z,9.40
2023-06-17T08:48:15.796Z,9.55
2023-06-17T08:50:42.810Z,9.27
2023-06-17T08:53:09.708Z,8.52
2023-06-17T08:55:36.483Z,8.68
2023-06-17T08:58:03.229Z,9.90
2023-06-17T09:00:30.098Z,10.27
2023-06-17T09:02:57.725Z,9.70
2023-06-17T09:05:24.589Z,9.38
2023-06-17T09:07:51.428Z,9.38
2023-06-17T09:10:18.456Z,10.00
2023-06-17T09:12:45.520Z,10.07
2023-06-17T09:15:18.942Z,10.80
2023-06-17T09:17:46.365Z,9.57
2023-06-17T09:20:14.730Z,10.20
2023-06-17T09:22:42.806Z,10.13
2023-06-17T09:25:12.585Z,9.90
2023-06-17T09:28:14.989Z,9.73
2023-06-17T09:30:45.088Z,8.93
2023-06-17T09:33:19.557Z,9.75
2023-06-17T09:35:46.489Z,9.38
2023-06-17T09:38:14.651Z,9.77
2023-06-17T09:40:41.402Z,9.10
2023-06-17T09:43:25.840Z,9.45
2023-06-17T09:45:56.507Z,8.77
2023-06-17T09:48:26.102Z,9.15
2023-06-17T09:50:57.110Z,8.88
2023-06-17T09:53:31.603Z,9.10
2023-06-17T09:56:00.016Z,8.45
2023-06-17T09:58:33.568Z,8.38
2023-06-17T10:01:02.204Z,8.00
2023-06-17T10:03:29.292Z,7.65
2023-06-17T10:05:59.027Z,8.03
2023-06-17T10:08:25.756Z,8.25
2023-06-17T10:10:52.536Z,8.00
2023-06-17T10:13:20.998Z,7.80
2023-06-17T10:15:48.127Z,7.60
2023-06-17T10:18:15.136Z,7.70
2023-06-17T10:20:41.934Z,7.80
2023-06-17T10:23:08.718Z,7.95
2023-06-17T10:25:37.115Z,7.55
2023-06-17T10:28:05.350Z,7.30
2023-06-17T10:30:33.273Z,7.33
2023-06-17T10:33:02.836Z,7.18
2023-06-17T10:35:44.929Z,6.97
2023-06-17T10:38:29.023Z,7.57
2023-06-17T10:40:55.810Z,7.63
2023-06-17T10:43:22.691Z,7.30
2023-06-17T10:45:53.985Z,8.23
2023-06-17T10:48:30.255Z,7.05
2023-06-17T10:50:58.528Z,6.75
2023-06-17T10:53:32.951Z,7.40
2023-06-17T10:56:01.411Z,7.40
2023-06-17T10:58:39.036Z,7.18
2023-06-17T11:01:09.686Z,7.60
2023-06-17T11:03:36.697Z,7.65
2023-06-17T11:06:04.449Z,7.30
2023-06-17T11:08:31.988Z,7.20
2023-06-17T11:11:16.022Z,6.47
2023-06-17T11:13:43.993Z,6.85
2023-06-17T11:16:10.950Z,6.88
2023-06-17T11:18:42.085Z,6.47
2023-06-17T11:21:09.195Z,6.37
2023-06-17T11:23:38.409Z,6.50
2023-06-17T11:26:06.289Z,6.68
2023-06-17T11:28:34.329Z,6.63
2023-06-17T11:31:01.842Z,5.72
2023-06-17T11:33:29.582Z,5.93
2023-06-17T11:35:56.398Z,5.50
2023-06-17T11:38:23.969Z,5.70
2023-06-17T11:40:55.235Z,6.20
2023-06-17T11:43:26.675Z,6.10
2023-06-17T11:45:59.900Z,5.73
2023-06-17T11:48:46.552Z,5.55
2023-06-17T11:51:19.745Z,6.32
2023-06-17T11:53:47.736Z,6.40
2023-06-17T11:56:18.189Z,7.07
2023-06-17T11:58:46.533Z,7.50
2023-06-17T12:01:16.460Z,7.28
2023-06-17T12:03:47.124Z,7.55
2023-06-17T12:06:18.950Z,7.32
2023-06-17T12:08:45.767Z,8.43
2023-06-17T12:11:32.768Z,8.83
2023-06-17T12:14:00.034Z,7.20
2023-06-17T12:16:31.858Z,7.90
2023-06-17T12:18:59.453Z,7.68
2023-06-17T12:21:26.265Z,7.30
2023-06-17T12:23:55.536Z,7.50
2023-06-17T12:26:25.108Z,7.35
2023-06-17T12:28:52.350Z,7.93
2023-06-17T12:31:19.618Z,7.35
2023-06-17T12:33:49.265Z,7.50
2023-06-17T12:36:17.024Z,7.47
2023-06-17T12:38:45.854Z,7.00
2023-06-17T12:41:13.051Z,7.78
2023-06-17T12:43:40.185Z,8.57
2023-06-17T12:46:07.247Z,8.10
2023-06-17T12:48:36.987Z,8.20
2023-06-17T12:51:08.071Z,7.63
2023-06-17T12:53:34.858Z,8.25
2023-06-17T12:56:01.808Z,7.78
2023-06-17T12:58:29.246Z,7.97
2023-06-17T13:00:56.159Z,7.67
2023-06-17T13:03:23.093Z,7.63
2023-06-17T13:05:50.745Z,7.43
2023-06-17T13:08:17.791Z,7.38
2023-06-17T13:10:44.616Z,8.02
2023-06-17T13:13:11.654Z,7.63
2023-06-17T13:15:38.897Z,7.90
2023-06-17T13:18:06.024Z,7.68
2023-06-17T13:20:32.887Z,7.90
2023-06-17T13:23:01.120Z,7.57
2023-06-17T13:25:28.093Z,7.10
2023-06-17T13:27:55.289Z,7.55
2023-06-17T13:30:22.530Z,7.30
2023-06-17T13:32:49.801Z,7.68
2023-06-17T13:35:16.837Z,8.10
2023-06-17T13:37:43.632Z,8.37
2023-06-17T13:40:10.621Z,6.53
2023-06-17T13:42:37.453Z,7.20
2023-06-17T13:45:05.946Z,7.55
2023-06-17T13:47:33.788Z,7.43
2023-06-17T13:50:01.126Z,6.63
2023-06-17T13:52:27.969Z,6.63
2023-06-17T13:54:54.760Z,7.93
2023-06-17T13:57:21.577Z,7.20
2023-06-17T13:59:48.534Z,8.10
2023-06-17T14:02:15.546Z,7.03
2023-06-17T14:04:43.353Z,7.53
2023-06-17T14:07:10.334Z,7.05
2023-06-17T14:09:37.162Z,7.25
2023-06-17T14:12:04.188Z,8.00
2023-06-17T14:14:31.277Z,8.03
2023-06-17T14:17:00.697Z,6.88
2023-06-17T14:19:29.237Z,6.65
2023-06-17T14:22:00.565Z,6.53
2023-06-17T14:24:27.506Z,6.70
2023-06-17T14:27:18.362Z,6.43
2023-06-17T14:29:45.153Z,6.35
2023-06-17T14:32:11.976Z,7.40
2023-06-17T14:34:38.796Z,7.38
2023-06-17T14:37:06.127Z,6.82
2023-06-17T14:39:32.882Z,6.60
2023-06-17T14:41:59.753Z,6.68
2023-06-17T14:44:26.587Z,6.35
2023-06-17T14:46:53.373Z,6.95
2023-06-17T14:49:20.569Z,6.50
2023-06-17T14:51:49.327Z,6.63
2023-06-17T14:54:16.243Z,7.60
2023-06-17T14:56:43.232Z,7.70
2023-06-17T14:59:10.105Z,7.10
2023-06-17T15:01:38.016Z,8.45
2023-06-17T15:04:07.620Z,7.70
2023-06-17T15:06:35.053Z,8.02
2023-06-17T15:09:25.865Z,7.70
2023-06-17T15:12:03.355Z,8.20
2023-06-17T15:14:36.033Z,8.88
2023-06-17T15:17:03.284Z,9.80
2023-06-17T15:19:30.105Z,9.45
2023-06-17T15:21:56.900Z,9.23
2023-06-17T15:24:23.793Z,8.48
2023-06-17T15:26:50.750Z,7.30
2023-06-17T15:29:17.633Z,7.13
2023-06-17T15:31:45.320Z,7.22
2023-06-17T15:34:12.114Z,7.05
2023-06-17T15:36:38.889Z,7.70
2023-06-17T15:39:20.638Z,7.40
2023-06-17T15:41:47.524Z,7.30
2023-06-17T15:44:17.395Z,7.55
2023-06-17T15:46:44.430Z,8.02
2023-06-17T15:49:11.378Z,7.80
2023-06-17T15:51:38.242Z,8.50
2023-06-17T15:54:05.152Z,7.70
2023-06-17T15:56:32.093Z,8.10
2023-06-17T15:59:00.846Z,8.43
2023-06-17T16:01:28.244Z,7.88
2023-06-17T16:03:57.580Z,8.25
2023-06-17T16:06:24.408Z,8.43
2023-06-17T16:08:52.524Z,8.07
2023-06-17T16:11:19.741Z,7.82
2023-06-17T16:13:46.565Z,8.05
2023-06-17T16:16:13.394Z,8.13
2023-06-17T16:18:40.291Z,8.20
2023-06-17T16:21:07.073Z,8.50
2023-06-17T16:23:33.953Z,8.13
2023-06-17T16:26:00.735Z,7.22
2023-06-17T16:28:27.557Z,7.38
2023-06-17T16:30:54.294Z,6.87
2023-06-17T16:33:21.117Z,7.05
2023-06-17T16:35:48.015Z,6.60
2023-06-17T16:38:14.835Z,7.03
2023-06-17T16:40:41.602Z,6.47
2023-06-17T16:43:08.380Z,7.30
2023-06-17T16:45:35.425Z,6.15
2023-06-17T16:48:02.397Z,5.82
2023-06-17T16:50:29.306Z,6.35
2023-06-17T16:52:56.171Z,6.10
2023-06-17T16:55:22.948Z,6.30
2023-06-17T16:57:49.724Z,6.22
2023-06-17T17:00:17.923Z,6.50
2023-06-17T17:02:44.946Z,7.10
2023-06-17T17:05:11.822Z,6.47
2023-06-17T17:07:38.676Z,7.43
2023-06-17T17:10:05.981Z,7.35
2023-06-17T17:12:32.816Z,7.63
2023-06-17T17:14:59.622Z,7.55
2023-06-17T17:17:26.880Z,8.60
2023-06-17T17:19:54.857Z,8.40
2023-06-17T17:22:21.643Z,8.57
2023-06-17T17:24:51.198Z,8.02
2023-06-17T17:27:18.152Z,7.95
2023-06-17T17:29:44.977Z,8.35
2023-06-17T17:32:12.158Z,8.53
2023-06-17T17:34:39.201Z,8.30
2023-06-17T17:37:06.081Z,8.93
2023-06-17T17:39:32.897Z,8.45
2023-06-17T17:41:59.662Z,8.90
2023-06-17T17:44:26.404Z,8.23
2023-06-17T17:46:53.254Z,8.30
2023-06-17T17:49:20.017Z,8.57
2023-06-17T17:51:46.827Z,8.52
2023-06-17T17:54:13.628Z,9.00
2023-06-17T17:56:40.416Z,9.00
2023-06-17T17:59:07.334Z,8.27
2023-06-17T18:01:34.149Z,8.88
2023-06-17T18:04:01.317Z,9.65
2023-06-17T18:06:30.636Z,8.73
2023-06-17T18:08:57.808Z,9.00
2023-06-17T18:11:24.640Z,9.35
2023-06-17T18:13:53.189Z,9.18
2023-06-17T18:16:23.124Z,9.07
2023-06-17T18:18:50.271Z,9.07
2023-06-17T18:21:17.169Z,8.30
2023-06-17T18:23:43.929Z,8.35
2023-06-17T18:26:10.900Z,8.73
2023-06-17T18:28:40.450Z,13.70
2023-06-17T18:31:07.211Z,13.05
2023-06-17T18:33:34.086Z,11.93
2023-06-17T18:36:00.938Z,11.23
2023-06-17T18:38:27.970Z,10.02
2023-06-17T18:40:54.765Z,10.02
2023-06-17T18:43:21.893Z,8.75
2023-06-17T18:45:49.392Z,8.33
2023-06-17T18:48:16.615Z,8.95
2023-06-17T18:50:43.438Z,8.98
2023-06-17T18:53:10.868Z,8.60
2023-06-17T18:55:38.651Z,8.60
2023-06-17T18:58:05.557Z,9.23
2023-06-17T19:00:34.871Z,8.45
2023-06-17T19:03:04.806Z,8.15
2023-06-17T19:05:31.634Z,9.07
2023-06-17T19:07:58.399Z,9.07
2023-06-17T19:10:25.233Z,9.10
2023-06-17T19:12:52.124Z,8.85
2023-06-17T19:15:18.962Z,8.63
2023-06-17T19:17:45.788Z,9.20
2023-06-17T19:20:13.220Z,9.02
2023-06-17T19:22:40.571Z,9.77
2023-06-17T19:25:07.761Z,9.73
2023-06-17T19:27:34.737Z,9.45
2023-06-17T19:30:02.575Z,9.65
2023-06-17T19:32:29.530Z,8.65
2023-06-17T19:34:58.311Z,9.80
2023-06-17T19:37:25.752Z,10.73
2023-06-17T19:39:52.614Z,9.95
2023-06-17T19:42:19.991Z,9.50
2023-06-17T19:44:47.090Z,10.30
2023-06-17T19:47:16.635Z,10.60
2023-06-17T19:49:43.459Z,12.45
2023-06-17T19:52:10.251Z,12.32
2023-06-17T19:54:37.033Z,11.80
2023-06-17T19:57:04.180Z,11.52
2023-06-17T19:59:31.844Z,12.20
2023-06-17T20:01:58.746Z,11.10
2023-06-17T20:04:25.668Z,11.52
2023-06-17T20:06:52.492Z,11.63
2023-06-17T20:09:19.302Z,11.90
2023-06-17T20:11:46.169Z,11.87
2023-06-17T20:14:13.873Z,11.50
2023-06-17T20:16:40.802Z,10.55
2023-06-17T20:19:07.684Z,10.18
2023-06-17T20:21:34.614Z,9.82
2023-06-17T20:24:01.496Z,11.07
2023-06-17T20:26:28.365Z,11.18
2023-06-17T20:28:55.257Z,11.55
2023-06-17T20:31:22.078Z,11.80
2023-06-17T20:33:48.948Z,11.50
2023-06-17T20:36:16.087Z,12.43
2023-06-17T20:38:42.997Z,13.07
2023-06-17T20:41:09.858Z,13.38
2023-06-17T20:43:36.704Z,12.80
2023-06-17T20:46:03.807Z,12.68
2023-06-17T20:48:30.623Z,14.23
2023-06-17T20:50:57.464Z,14.82
2023-06-17T20:53:24.380Z,13.65
2023-06-17T20:55:51.396Z,13.52
2023-06-17T20:58:18.277Z,13.93
2023-06-17T21:00:45.917Z,15.30
2023-06-17T21:03:12.922Z,15.30
2023-06-17T21:05:39.849Z,14.85
2023-06-17T21:08:06.856Z,16.08
2023-06-17T21:10:33.722Z,16.02
2023-06-17T21:13:00.630Z,15.67
2023-06-17T21:15:27.408Z,15.27
2023-06-17T21:17:54.423Z,15.98
2023-06-17T21:20:21.773Z,15.90
2023-06-17T21:22:49.253Z,15.38
2023-06-17T21:25:16.217Z,16.53
2023-06-17T21:27:43.206Z,15.65
2023-06-17T21:30:10.607Z,17.42
2023-06-17T21:32:37.434Z,16.17
2023-06-17T21:35:04.549Z,17.05
2023-06-17T21:37:31.650Z,16.30
2023-06-17T21:39:58.476Z,17.38
2023-06-17T21:42:25.922Z,17.40
2023-06-17T21:44:52.750Z,16.48
2023-06-17T21:47:19.650Z,16.42
2023-06-17T21:49:46.516Z,18.33
2023-06-17T21:52:13.450Z,17.83
2023-06-17T21:54:40.371Z,18.55
2023-06-17T21:57:07.299Z,18.08
2023-06-17T21:59:34.268Z,18.63
2023-06-17T22:02:01.232Z,18.67
2023-06-17T22:04:28.246Z,19.08
2023-06-17T22:06:57.070Z,19.73
2023-06-17T22:09:23.953Z,18.33
2023-06-17T22:11:51.133Z,19.98
2023-06-17T22:14:17.938Z,19.57
2023-06-17T22:16:44.708Z,21.27
2023-06-17T22:19:11.905Z,20.33
2023-06-17T22:21:38.686Z,20.35
2023-06-17T22:24:05.783Z,21.75
2023-06-17T22:26:32.853Z,21.33
2023-06-17T22:28:59.770Z,22.85
2023-06-17T22:31:26.620Z,23.45
2023-06-17T22:33:53.459Z,24.17
2023-06-17T22:36:20.245Z,25.65
2023-06-17T22:38:47.100Z,24.83
2023-06-17T22:41:14.028Z,25.08
2023-06-17T22:43:40.845Z,25.67
2023-06-17T22:46:09.478Z,26.65
2023-06-17T22:48:36.468Z,27.13
2023-06-17T22:51:03.300Z,27.83
2023-06-17T22:53:30.098Z,28.27
2023-06-17T22:55:56.907Z,29.38
2023-06-17T22:58:24.009Z,29.17
2023-06-17T23:00:50.858Z,28.70
2023-06-17T23:03:17.772Z,28.07
2023-06-17T23:05:44.679Z,28.13
2023-06-17T23:08:11.482Z,27.98
2023-06-17T23:10:38.355Z,26.83
2023-06-17T23:13:05.210Z,26.83
2023-06-17T23:15:33.338Z,24.43
2023-06-17T23:18:00.204Z,24.83
2023-06-17T23:20:27.221Z,24.55
2023-06-17T23:22:55.294Z,24.42
2023-06-17T23:25:22.181Z,24.73
2023-06-17T23:27:50.212Z,24.43
2023-06-17T23:30:18.643Z,25.25
2023-06-17T23:32:46.071Z,23.92
2023-06-17T23:35:12.925Z,23.02
2023-06-17T23:37:39.769Z,23.20
2023-06-17T23:40:07.285Z,23.80
2023-06-17T23:42:34.060Z,22.88
2023-06-17T23:45:01.866Z,23.55
2023-06-17T23:47:28.655Z,22.45
2023-06-17T23:49:55.478Z,22.92
2023-06-17T23:52:22.241Z,23.20
2023-06-17T23:54:49.128Z,21.80
2023-06-17T23:57:16.031Z,21.02
2023-06-17T23:59:42.828Z,22.10
